Time;durP1;ratioP1;P1;durP2;ratioP2;P2;SDS_P1;SDS_P2;PMS_P1;PMS_P2;Temp;Humidity;BMP_temperature;BMP_pressure;BME280_temperature;BME280_humidity;BME280_pressure;Samples;Min_cycle;Max_cycle;Signal;HPM_P1;HPM_P2
2022/06/09 00:01:49;;;;;;;4.00;3.60;;;;;;;;;;4967417;28;20041;-73
2022/06/09 00:04:18;;;;;;;4.93;3.50;;;;;;;;;;4970352;28;20023;-72
2022/06/09 00:06:46;;;;;;;3.77;3.10;;;;;;;;;;4961078;28;20410;-70
2022/06/09 00:09:12;;;;;;;3.97;3.55;;;;;;;;;;4950881;28;20141;-70
2022/06/09 00:11:39;;;;;;;6.35;3.97;;;;;;;;;;4969345;28;20462;-68
2022/06/09 00:14:05;;;;;;;3.80;3.50;;;;;;;;;;4963494;28;20079;-74
2022/06/09 00:16:31;;;;;;;4.10;3.47;;;;;;;;;;4963936;28;20113;-73
2022/06/09 00:18:56;;;;;;;4.10;3.70;;;;;;;;;;4967273;28;20122;-68
2022/06/09 00:21:23;;;;;;;6.10;3.88;;;;;;;;;;4957581;28;20431;-67
2022/06/09 00:23:48;;;;;;;4.30;3.63;;;;;;;;;;4962004;28;20042;-73
2022/06/09 00:26:14;;;;;;;4.15;3.70;;;;;;;;;;4955794;28;20026;-67
2022/06/09 00:28:39;;;;;;;4.28;3.83;;;;;;;;;;4961807;28;20027;-68
2022/06/09 00:31:04;;;;;;;3.72;3.42;;;;;;;;;;4965987;28;20026;-67
2022/06/09 00:33:30;;;;;;;4.45;3.72;;;;;;;;;;4962378;28;20026;-70
2022/06/09 00:35:55;;;;;;;7.80;4.03;;;;;;;;;;4972013;28;20026;-68
2022/06/09 00:38:20;;;;;;;3.55;3.25;;;;;;;;;;4969914;28;20031;-70
2022/06/09 00:40:46;;;;;;;4.40;3.33;;;;;;;;;;4963384;28;20027;-70
2022/06/09 00:43:11;;;;;;;3.95;3.30;;;;;;;;;;4970699;28;20409;-67
2022/06/09 00:45:36;;;;;;;3.75;3.35;;;;;;;;;;4971968;28;20113;-72
2022/06/09 00:48:16;;;;;;;3.38;3.08;;;;;;;;;;4958213;28;20038;-66
2022/06/09 00:50:42;;;;;;;4.30;3.90;;;;;;;;;;4960055;28;20030;-67
2022/06/09 00:53:16;;;;;;;7.13;3.63;;;;;;;;;;4971063;28;20034;-70
2022/06/09 00:55:42;;;;;;;5.80;3.10;;;;;;;;;;4970983;28;20027;-70
2022/06/09 00:58:16;;;;;;;5.90;3.10;;;;;;;;;;4958527;28;20035;-72
2022/06/09 01:00:53;;;;;;;3.80;2.88;;;;;;;;;;4966049;28;20069;-67
2022/06/09 01:03:20;;;;;;;3.85;3.40;;;;;;;;;;4965104;28;20034;-66
2022/06/09 01:05:47;;;;;;;3.15;2.85;;;;;;;;;;4961989;28;20022;-66
2022/06/09 01:08:13;;;;;;;5.13;3.17;;;;;;;;;;4970361;28;20037;-73
2022/06/09 01:10:38;;;;;;;3.33;3.03;;;;;;;;;;4961681;28;20034;-66
2022/06/09 01:13:04;;;;;;;4.38;3.38;;;;;;;;;;4970990;28;20030;-67
2022/06/09 01:15:48;;;;;;;9.55;3.45;;;;;;;;;;4973344;28;20335;-67
2022/06/09 01:18:25;;;;;;;3.55;3.25;;;;;;;;;;4958825;28;20358;-73
2022/06/09 01:21:09;;;;;;;7.28;3.65;;;;;;;;;;4967625;28;20462;-70
2022/06/09 01:23:46;;;;;;;3.40;3.10;;;;;;;;;;4967229;28;20031;-73
2022/06/09 01:26:31;;;;;;;4.97;3.35;;;;;;;;;;4955608;28;20455;-68
2022/06/09 01:28:59;;;;;;;4.43;3.33;;;;;;;;;;4971125;28;20050;-66
2022/06/09 01:31:46;;;;;;;5.75;3.10;;;;;;;;;;4966505;28;20061;-67
2022/06/09 01:34:14;;;;;;;6.25;2.85;;;;;;;;;;4957560;28;20039;-67
2022/06/09 01:36:46;;;;;;;6.05;3.22;;;;;;;;;;4967125;28;20545;-70
2022/06/09 01:39:11;;;;;;;3.80;3.50;;;;;;;;;;4967731;28;20677;-68
2022/06/09 01:41:44;;;;;;;3.50;3.20;;;;;;;;;;4969896;28;20676;-69
2022/06/09 01:44:10;;;;;;;4.70;3.63;;;;;;;;;;4974101;28;20070;-72
2022/06/09 01:46:36;;;;;;;3.15;2.85;;;;;;;;;;4972450;28;20077;-65
2022/06/09 01:49:05;;;;;;;3.08;2.78;;;;;;;;;;4970064;28;20027;-67
2022/06/09 01:51:32;;;;;;;3.58;3.28;;;;;;;;;;4958762;28;20031;-70
2022/06/09 01:54:00;;;;;;;3.88;2.95;;;;;;;;;;4954117;28;20039;-71
2022/06/09 01:56:35;;;;;;;4.07;2.88;;;;;;;;;;4967300;28;20082;-65
2022/06/09 01:59:05;;;;;;;6.97;3.30;;;;;;;;;;4973893;28;20027;-69
2022/06/09 02:01:30;;;;;;;;;;;;;;;;;;4968150;28;21216;-68
2022/06/09 02:03:57;;;;;;;3.10;2.90;;;;;;;;;;4963251;28;20021;-67
2022/06/09 02:06:23;;;;;;;4.68;3.60;;;;;;;;;;4961625;28;20267;-67
2022/06/09 02:08:48;;;;;;;4.30;2.95;;;;;;;;;;4971575;28;20030;-67
2022/06/09 02:11:14;;;;;;;4.70;3.20;;;;;;;;;;4958601;28;20033;-72
2022/06/09 02:13:42;;;;;;;4.88;3.40;;;;;;;;;;4964334;28;20026;-68
2022/06/09 02:16:09;;;;;;;4.72;3.38;;;;;;;;;;4956195;28;20085;-66
2022/06/09 02:18:40;;;;;;;3.92;3.08;;;;;;;;;;4958416;28;20038;-72
2022/06/09 02:21:32;;;;;;;4.93;3.30;;;;;;;;;;4957481;28;20106;-70
2022/06/09 02:23:57;;;;;;;3.22;2.63;;;;;;;;;;4958802;28;20509;-68
2022/06/09 02:26:22;;;;;;;3.92;2.90;;;;;;;;;;4971182;28;20019;-67
2022/06/09 02:28:48;;;;;;;3.60;3.30;;;;;;;;;;4957941;28;20501;-67
2022/06/09 02:31:14;;;;;;;3.28;2.75;;;;;;;;;;4963616;28;20026;-66
2022/06/09 02:33:39;;;;;;;2.85;2.65;;;;;;;;;;4966061;28;20035;-67
2022/06/09 02:36:05;;;;;;;3.72;3.00;;;;;;;;;;4964581;28;20351;-72
2022/06/09 02:38:30;;;;;;;3.42;3.13;;;;;;;;;;4961996;28;20084;-68
2022/06/09 02:40:56;;;;;;;4.28;2.78;;;;;;;;;;4957091;28;20114;-73
2022/06/09 02:43:21;;;;;;;8.75;2.80;;;;;;;;;;4968617;28;20391;-68
2022/06/09 02:45:47;;;;;;;4.55;2.88;;;;;;;;;;4953923;28;20030;-72
2022/06/09 02:48:12;;;;;;;6.90;3.08;;;;;;;;;;4958759;28;20023;-68
2022/06/09 02:50:38;;;;;;;2.60;2.40;;;;;;;;;;4968428;28;20033;-67
2022/06/09 02:53:03;;;;;;;7.38;3.00;;;;;;;;;;4970927;28;20026;-72
2022/06/09 02:55:29;;;;;;;3.47;3.17;;;;;;;;;;4970771;28;20026;-68
2022/06/09 02:57:54;;;;;;;3.67;3.38;;;;;;;;;;4969903;28;20039;-67
2022/06/09 03:00:20;;;;;;;4.22;3.78;;;;;;;;;;4969025;28;20033;-72
2022/06/09 03:02:53;;;;;;;6.78;4.68;;;;;;;;;;4955123;28;20081;-72
2022/06/09 03:05:18;;;;;;;7.60;4.05;;;;;;;;;;4960828;28;20042;-67
2022/06/09 03:07:43;;;;;;;8.30;3.78;;;;;;;;;;4971033;28;20057;-66
2022/06/09 03:10:09;;;;;;;3.97;3.60;;;;;;;;;;4969208;28;20021;-70
2022/06/09 03:12:34;;;;;;;6.47;4.40;;;;;;;;;;4972539;28;20034;-66
2022/06/09 03:15:00;;;;;;;12.70;4.90;;;;;;;;;;4966617;28;20027;-72
2022/06/09 03:17:26;;;;;;;11.57;4.28;;;;;;;;;;4967020;28;20133;-71
2022/06/09 03:19:51;;;;;;;9.20;4.95;;;;;;;;;;4969275;28;20034;-66
2022/06/09 03:22:17;;;;;;;7.88;4.68;;;;;;;;;;4972321;28;20030;-67
2022/06/09 03:24:43;;;;;;;5.18;4.05;;;;;;;;;;4968572;28;20027;-65
2022/06/09 03:27:09;;;;;;;5.43;4.18;;;;;;;;;;4957873;28;20346;-65
2022/06/09 03:29:34;;;;;;;5.25;4.30;;;;;;;;;;4968836;28;20426;-66
2022/06/09 03:32:00;;;;;;;7.30;3.95;;;;;;;;;;4968957;28;20033;-70
2022/06/09 03:34:25;;;;;;;4.93;3.95;;;;;;;;;;4973080;28;20097;-66
2022/06/09 03:36:50;;;;;;;4.53;3.72;;;;;;;;;;4969895;28;20050;-65
2022/06/09 03:39:16;;;;;;;5.38;3.53;;;;;;;;;;4968934;28;20498;-66
2022/06/09 03:41:41;;;;;;;6.93;3.90;;;;;;;;;;4965454;28;20026;-66
2022/06/09 03:44:06;;;;;;;5.32;3.90;;;;;;;;;;4967185;28;20394;-68
2022/06/09 03:46:32;;;;;;;6.57;4.75;;;;;;;;;;4972704;28;20029;-68
2022/06/09 03:48:57;;;;;;;14.35;5.13;;;;;;;;;;4968806;28;20386;-69
2022/06/09 03:51:23;;;;;;;6.28;4.18;;;;;;;;;;4965177;28;20350;-68
2022/06/09 03:53:48;;;;;;;9.32;3.72;;;;;;;;;;4960722;28;20043;-67
2022/06/09 03:56:15;;;;;;;6.40;4.15;;;;;;;;;;4954276;28;20049;-72
2022/06/09 03:58:41;;;;;;;7.72;4.75;;;;;;;;;;4966648;28;20116;-66
2022/06/09 04:01:06;;;;;;;8.23;4.60;;;;;;;;;;4973506;28;20038;-69
2022/06/09 04:03:32;;;;;;;17.08;4.57;;;;;;;;;;4972207;28;20026;-68
2022/06/09 04:05:57;;;;;;;6.10;4.32;;;;;;;;;;4973882;28;20054;-66
2022/06/09 04:08:23;;;;;;;6.28;4.30;;;;;;;;;;4959556;28;20439;-74
2022/06/09 04:10:48;;;;;;;7.85;4.70;;;;;;;;;;4964342;28;20027;-67
2022/06/09 04:13:15;;;;;;;6.65;4.40;;;;;;;;;;4968057;28;20473;-73
2022/06/09 04:15:40;;;;;;;9.02;3.53;;;;;;;;;;4967488;28;20475;-70
2022/06/09 04:18:06;;;;;;;5.57;4.18;;;;;;;;;;4967409;28;20035;-67
2022/06/09 04:20:32;;;;;;;10.63;4.38;;;;;;;;;;4963583;28;20458;-67
2022/06/09 04:22:57;;;;;;;12.85;4.15;;;;;;;;;;4963484;28;20031;-66
2022/06/09 04:25:22;;;;;;;8.50;4.53;;;;;;;;;;4958178;28;20038;-73
2022/06/09 04:27:48;;;;;;;5.53;4.40;;;;;;;;;;4955862;28;20031;-70
2022/06/09 04:30:13;;;;;;;6.47;4.55;;;;;;;;;;4972149;28;20043;-68
2022/06/09 04:32:39;;;;;;;7.63;4.05;;;;;;;;;;4970215;28;20465;-67
2022/06/09 04:35:04;;;;;;;6.72;4.40;;;;;;;;;;4971073;28;20034;-68
2022/06/09 04:40:13;;;;;;;9.18;4.47;;;;;;;;;;4960155;28;20108;-67
2022/06/09 04:42:39;;;;;;;5.55;4.10;;;;;;;;;;4966170;28;20022;-65
2022/06/09 04:45:04;;;;;;;5.60;4.32;;;;;;;;;;4969780;28;20072;-66
2022/06/09 04:47:30;;;;;;;10.93;4.03;;;;;;;;;;4971419;28;20442;-68
2022/06/09 04:49:55;;;;;;;8.77;3.83;;;;;;;;;;4972324;28;20403;-67
2022/06/09 04:52:20;;;;;;;6.07;4.32;;;;;;;;;;4974414;28;20125;-71
2022/06/09 04:54:46;;;;;;;6.15;3.58;;;;;;;;;;4973626;28;20026;-67
2022/06/09 04:57:11;;;;;;;6.47;3.75;;;;;;;;;;4971405;28;20050;-72
2022/06/09 04:59:36;;;;;;;5.18;3.97;;;;;;;;;;4968762;28;20382;-66
2022/06/09 05:02:02;;;;;;;4.60;4.05;;;;;;;;;;4972334;28;20097;-67
2022/06/09 05:04:27;;;;;;;4.20;3.58;;;;;;;;;;4975400;28;20042;-67
2022/06/09 05:06:52;;;;;;;5.18;3.70;;;;;;;;;;4970740;28;20034;-67
2022/06/09 05:09:18;;;;;;;6.97;3.70;;;;;;;;;;4973032;28;20427;-66
2022/06/09 05:11:43;;;;;;;4.65;3.50;;;;;;;;;;4969385;28;20063;-67
2022/06/09 05:14:09;;;;;;;9.20;4.00;;;;;;;;;;4966320;28;20121;-70
2022/06/09 05:16:35;;;;;;;3.67;3.33;;;;;;;;;;4971832;28;20069;-66
2022/06/09 05:19:00;;;;;;;3.88;3.58;;;;;;;;;;4970007;28;20105;-68
2022/06/09 05:21:26;;;;;;;5.25;3.60;;;;;;;;;;4971265;28;20065;-65
2022/06/09 05:23:51;;;;;;;4.35;3.90;;;;;;;;;;4968944;28;20038;-68
2022/06/09 05:26:16;;;;;;;4.00;3.38;;;;;;;;;;4970806;28;20067;-67
2022/06/09 05:28:42;;;;;;;4.50;4.10;;;;;;;;;;4974794;28;20087;-68
2022/06/09 05:31:07;;;;;;;3.53;3.15;;;;;;;;;;4958652;28;20030;-73
2022/06/09 05:33:33;;;;;;;4.13;3.50;;;;;;;;;;4960957;28;20097;-70
2022/06/09 05:35:58;;;;;;;3.85;3.17;;;;;;;;;;4966038;28;20042;-68
2022/06/09 05:46:37;;;;;;;4.57;4.13;;;;;;;;;;4954112;28;20057;-72
2022/06/09 05:49:03;;;;;;;4.60;3.92;;;;;;;;;;4955051;28;20663;-72
2022/06/09 05:51:30;;;;;;;4.13;3.65;;;;;;;;;;4951057;28;20069;-71
2022/06/09 05:53:55;;;;;;;5.22;3.65;;;;;;;;;;4955383;28;20035;-67
2022/06/09 05:56:21;;;;;;;4.47;4.07;;;;;;;;;;4951613;28;20093;-66
2022/06/09 05:58:46;;;;;;;6.00;4.68;;;;;;;;;;4953433;28;20023;-67
2022/06/09 06:01:12;;;;;;;4.97;4.45;;;;;;;;;;4951043;28;20019;-72
2022/06/09 06:03:38;;;;;;;5.50;3.85;;;;;;;;;;4952816;28;20058;-74
2022/06/09 06:08:47;;;;;;;5.35;4.45;;;;;;;;;;4951611;28;20042;-67
2022/06/09 06:11:14;;;;;;;5.93;4.53;;;;;;;;;;4955229;28;20035;-68
2022/06/09 06:13:40;;;;;;;5.55;4.55;;;;;;;;;;4951527;28;20035;-66
2022/06/09 06:16:06;;;;;;;6.20;4.25;;;;;;;;;;4952528;28;20588;-69
2022/06/09 06:18:31;;;;;;;4.95;4.45;;;;;;;;;;4957282;28;20046;-66
2022/06/09 06:20:56;;;;;;;5.22;4.70;;;;;;;;;;4951848;28;20042;-73
2022/06/09 06:23:23;;;;;;;7.13;4.22;;;;;;;;;;4951971;28;20423;-67
2022/06/09 06:25:48;;;;;;;4.97;4.47;;;;;;;;;;4952815;28;23159;-66
2022/06/09 06:28:14;;;;;;;4.45;4.05;;;;;;;;;;4955653;28;20050;-66
2022/06/09 06:30:39;;;;;;;4.57;4.13;;;;;;;;;;4953982;28;20019;-66
2022/06/09 06:33:04;;;;;;;5.90;3.80;;;;;;;;;;4953771;28;20042;-72
2022/06/09 06:35:30;;;;;;;4.15;3.75;;;;;;;;;;4955326;28;20031;-67
2022/06/09 06:37:55;;;;;;;9.05;3.80;;;;;;;;;;4961663;28;20022;-64
2022/06/09 06:40:20;;;;;;;3.50;3.20;;;;;;;;;;4968542;28;20219;-68
2022/06/09 06:42:46;;;;;;;4.72;4.28;;;;;;;;;;4970506;28;20022;-65
2022/06/09 06:45:12;;;;;;;4.10;3.70;;;;;;;;;;4969815;28;20350;-67
2022/06/09 06:47:39;;;;;;;5.82;5.22;;;;;;;;;;4968639;28;20409;-64
2022/06/09 06:50:05;;;;;;;5.15;4.65;;;;;;;;;;4967604;28;20030;-67
2022/06/09 06:52:30;;;;;;;4.70;4.30;;;;;;;;;;4967343;28;20027;-68
2022/06/09 06:54:55;;;;;;;4.72;4.32;;;;;;;;;;4959816;28;20049;-68
2022/06/09 06:57:21;;;;;;;5.70;3.92;;;;;;;;;;4964026;28;20062;-68
2022/06/09 06:59:46;;;;;;;3.70;3.25;;;;;;;;;;4959014;28;20097;-66
2022/06/09 07:02:12;;;;;;;6.72;3.45;;;;;;;;;;4963600;28;20041;-66
2022/06/09 07:04:37;;;;;;;4.63;4.03;;;;;;;;;;4967223;28;20134;-66
2022/06/09 07:07:03;;;;;;;6.50;4.30;;;;;;;;;;4970271;28;20078;-67
2022/06/09 07:09:28;;;;;;;8.55;4.68;;;;;;;;;;4967481;28;20023;-72
2022/06/09 07:11:53;;;;;;;7.55;5.30;;;;;;;;;;4967320;28;20142;-68
2022/06/09 07:14:19;;;;;;;8.50;5.25;;;;;;;;;;4969148;28;20986;-66
2022/06/09 07:16:44;;;;;;;5.88;4.88;;;;;;;;;;4966055;28;20031;-67
2022/06/09 07:19:09;;;;;;;6.57;4.03;;;;;;;;;;4968202;28;20106;-71
2022/06/09 07:21:35;;;;;;;5.82;4.82;;;;;;;;;;4965554;28;20026;-66
2022/06/09 07:24:01;;;;;;;6.18;5.22;;;;;;;;;;4957377;28;20105;-66
2022/06/09 07:26:26;;;;;;;7.43;5.28;;;;;;;;;;4966378;28;20022;-65
2022/06/09 07:28:52;;;;;;;6.32;4.60;;;;;;;;;;4968829;28;20027;-64
2022/06/09 07:31:17;;;;;;;5.03;4.50;;;;;;;;;;4969477;28;20038;-72
2022/06/09 07:33:43;;;;;;;6.63;4.45;;;;;;;;;;4973638;28;20033;-68
2022/06/09 07:36:10;;;;;;;4.03;3.58;;;;;;;;;;4972053;28;20101;-69
2022/06/09 07:38:36;;;;;;;5.90;3.65;;;;;;;;;;4969062;28;20018;-71
2022/06/09 07:41:01;;;;;;;3.80;2.97;;;;;;;;;;4968658;28;20090;-68
2022/06/09 07:43:27;;;;;;;3.25;2.92;;;;;;;;;;4973379;28;20027;-68
2022/06/09 07:45:52;;;;;;;4.20;3.10;;;;;;;;;;4968659;28;20439;-67
2022/06/09 07:48:19;;;;;;;5.97;3.70;;;;;;;;;;4965659;28;20023;-72
2022/06/09 07:50:45;;;;;;;3.97;3.20;;;;;;;;;;4964666;28;21066;-69
2022/06/09 07:53:10;;;;;;;4.10;3.10;;;;;;;;;;4967165;28;20026;-67
2022/06/09 07:55:36;;;;;;;4.68;3.45;;;;;;;;;;4968676;28;20041;-67
2022/06/09 07:58:01;;;;;;;6.68;2.83;;;;;;;;;;4921310;28;1266685;-67
2022/06/09 08:00:28;;;;;;;4.43;3.42;;;;;;;;;;4952973;28;20027;-68
2022/06/09 08:02:54;;;;;;;6.20;3.53;;;;;;;;;;4957419;28;20031;-72
2022/06/09 08:05:21;;;;;;;2.85;2.60;;;;;;;;;;4955061;28;20057;-66
2022/06/09 08:07:47;;;;;;;3.83;3.05;;;;;;;;;;4950963;28;20030;-67
2022/06/09 08:10:14;;;;;;;2.95;2.72;;;;;;;;;;4950710;28;20027;-70
2022/06/09 08:12:39;;;;;;;3.05;2.80;;;;;;;;;;4951468;28;20023;-70
2022/06/09 08:15:05;;;;;;;4.10;2.83;;;;;;;;;;4952903;28;20450;-68
2022/06/09 08:17:30;;;;;;;4.90;2.72;;;;;;;;;;4957461;28;20090;-65
2022/06/09 08:19:56;;;;;;;4.32;3.08;;;;;;;;;;4950972;28;20030;-67
2022/06/09 08:22:21;;;;;;;2.90;2.60;;;;;;;;;;4952814;28;20027;-66
2022/06/09 08:24:46;;;;;;;4.53;2.88;;;;;;;;;;4943168;28;20041;-68
2022/06/09 08:27:12;;;;;;;6.68;2.80;;;;;;;;;;4954468;28;20109;-67
2022/06/09 08:29:37;;;;;;;3.10;2.25;;;;;;;;;;4955813;28;20054;-72
2022/06/09 08:32:03;;;;;;;3.83;2.55;;;;;;;;;;4954532;28;20027;-70
2022/06/09 08:34:29;;;;;;;4.30;2.30;;;;;;;;;;4954052;28;20037;-68
2022/06/09 08:36:54;;;;;;;2.22;2.03;;;;;;;;;;4955522;28;20030;-70
2022/06/09 08:39:20;;;;;;;1.98;1.48;;;;;;;;;;4955015;28;20034;-69
2022/06/09 08:41:45;;;;;;;4.25;2.00;;;;;;;;;;4951681;28;20105;-68
2022/06/09 08:44:34;;;;;;;2.33;1.70;;;;;;;;;;4956877;28;20147;-69
2022/06/09 08:46:59;;;;;;;3.35;1.95;;;;;;;;;;4923933;28;20544;-68
2022/06/09 08:49:29;;;;;;;1.73;1.63;;;;;;;;;;4956813;28;20023;-69
2022/06/09 08:51:58;;;;;;;1.63;1.52;;;;;;;;;;4960279;28;20121;-69
2022/06/09 08:54:28;;;;;;;4.55;1.40;;;;;;;;;;4956747;28;20746;-73
2022/06/09 08:56:54;;;;;;;5.45;1.35;;;;;;;;;;4952967;28;20344;-75
2022/06/09 08:59:22;;;;;;;2.65;1.27;;;;;;;;;;4956307;28;20533;-68
2022/06/09 09:01:50;;;;;;;1.00;0.90;;;;;;;;;;4957744;28;20027;-68
2022/06/09 09:04:19;;;;;;;1.27;1.10;;;;;;;;;;4958864;28;20470;-71
2022/06/09 09:06:50;;;;;;;1.00;0.85;;;;;;;;;;4955749;28;20035;-75
2022/06/09 09:09:24;;;;;;;1.00;0.90;;;;;;;;;;4956532;28;20042;-75
2022/06/09 09:12:06;;;;;;;2.22;1.00;;;;;;;;;;4954385;28;20018;-75
2022/06/09 09:14:49;;;;;;;0.90;0.90;;;;;;;;;;4959176;28;20031;-67
2022/06/09 09:17:18;;;;;;;1.80;1.17;;;;;;;;;;4958219;28;20111;-68
2022/06/09 09:19:51;;;;;;;1.52;1.25;;;;;;;;;;4956308;28;20052;-72
2022/06/09 09:22:23;;;;;;;1.95;1.40;;;;;;;;;;4970771;28;20069;-69
2022/06/09 09:25:00;;;;;;;1.88;1.10;;;;;;;;;;4969446;28;20038;-69
2022/06/09 09:27:37;;;;;;;2.42;1.60;;;;;;;;;;4973815;28;20027;-68
2022/06/09 09:30:05;;;;;;;1.30;1.20;;;;;;;;;;4969438;28;20031;-74
2022/06/09 09:32:37;;;;;;;2.28;1.13;;;;;;;;;;4969958;28;20019;-70
2022/06/09 09:35:08;;;;;;;2.45;1.50;;;;;;;;;;4971705;28;20030;-68
2022/06/09 09:37:44;;;;;;;1.40;1.30;;;;;;;;;;4970859;28;20049;-69
2022/06/09 09:40:10;;;;;;;1.95;1.30;;;;;;;;;;4970676;28;20037;-76
2022/06/09 09:42:37;;;;;;;2.58;1.90;;;;;;;;;;4960151;28;20030;-70
2022/06/09 09:45:11;;;;;;;1.58;1.30;;;;;;;;;;4971054;28;20037;-67
2022/06/09 09:47:48;;;;;;;1.45;1.35;;;;;;;;;;4972490;28;20161;-67
2022/06/09 09:50:20;;;;;;;2.28;1.58;;;;;;;;;;4969573;28;20027;-68
2022/06/09 09:52:46;;;;;;;1.48;1.30;;;;;;;;;;4962743;28;20118;-69
2022/06/09 09:55:32;;;;;;;1.50;1.40;;;;;;;;;;4971891;28;20031;-68
2022/06/09 09:58:16;;;;;;;1.63;1.30;;;;;;;;;;4971823;28;20047;-71
2022/06/09 10:00:42;;;;;;;2.20;1.50;;;;;;;;;;4970689;28;20343;-69
2022/06/09 10:08:43;;;;;;;2.83;1.30;;;;;;;;;;4970322;28;20041;-70
2022/06/09 10:13:59;;;;;;;1.27;1.17;;;;;;;;;;4970499;28;20520;-68
2022/06/09 10:16:27;;;;;;;3.25;1.73;;;;;;;;;;4972922;28;20438;-68
2022/06/09 10:18:54;;;;;;;1.20;1.10;;;;;;;;;;4969248;28;20058;-69
2022/06/09 10:21:19;;;;;;;1.50;1.30;;;;;;;;;;4957398;28;20046;-69
2022/06/09 10:23:54;;;;;;;1.95;1.30;;;;;;;;;;4957316;28;20381;-69
2022/06/09 10:26:25;;;;;;;1.08;1.08;;;;;;;;;;4956351;28;20035;-68
2022/06/09 10:28:55;;;;;;;2.10;1.30;;;;;;;;;;4955231;28;21231;-70
2022/06/09 10:31:39;;;;;;;2.67;1.55;;;;;;;;;;4954844;28;20871;-70
2022/06/09 10:34:31;;;;;;;1.20;1.10;;;;;;;;;;4954293;28;20035;-73
2022/06/09 10:36:59;;;;;;;1.70;1.17;;;;;;;;;;4955686;28;20045;-69
2022/06/09 10:39:34;;;;;;;3.10;1.55;;;;;;;;;;4957995;28;20022;-68
2022/06/09 10:42:03;;;;;;;1.25;1.15;;;;;;;;;;4954889;28;20045;-71
2022/06/09 10:44:41;;;;;;;1.52;1.30;;;;;;;;;;4956217;28;20053;-71
2022/06/09 10:56:02;;;;;;;1.13;1.02;;;;;;;;;;4947653;28;20061;-75
2022/06/09 10:58:38;;;;;;;1.50;1.33;;;;;;;;;;4962381;28;20168;-70
2022/06/09 11:01:04;;;;;;;2.10;1.25;;;;;;;;;;4966860;28;20019;-68
2022/06/09 11:03:40;;;;;;;1.20;1.10;;;;;;;;;;4967851;28;20029;-70
2022/06/09 11:06:21;;;;;;;1.20;1.10;;;;;;;;;;4964525;28;20057;-76
2022/06/09 11:08:53;;;;;;;2.47;1.30;;;;;;;;;;4954781;28;20523;-69
2022/06/09 11:11:21;;;;;;;1.75;1.20;;;;;;;;;;4969893;28;20026;-69
2022/06/09 11:13:51;;;;;;;1.20;1.03;;;;;;;;;;4969579;28;20027;-71
2022/06/09 11:16:17;;;;;;;2.33;1.60;;;;;;;;;;4970085;28;20042;-74
2022/06/09 11:18:45;;;;;;;2.00;1.15;;;;;;;;;;4970299;28;20027;-68
2022/06/09 11:21:18;;;;;;;4.28;1.27;;;;;;;;;;4970621;28;20105;-70
2022/06/09 11:24:02;;;;;;;1.30;1.10;;;;;;;;;;4969017;28;20065;-69
2022/06/09 11:26:30;;;;;;;2.95;1.15;;;;;;;;;;4970674;28;20343;-69
2022/06/09 11:29:01;;;;;;;1.30;1.10;;;;;;;;;;4969971;28;20098;-72
2022/06/09 11:31:27;;;;;;;2.15;1.10;;;;;;;;;;4967935;28;20265;-70
2022/06/09 11:33:52;;;;;;;1.58;1.10;;;;;;;;;;4968768;28;20102;-73
2022/06/09 11:36:18;;;;;;;1.80;1.20;;;;;;;;;;4970213;28;20081;-70
2022/06/09 11:38:43;;;;;;;4.25;1.20;;;;;;;;;;4967585;28;20070;-73
2022/06/09 11:41:26;;;;;;;1.33;1.23;;;;;;;;;;4972256;28;20442;-69
2022/06/09 11:43:52;;;;;;;5.88;1.23;;;;;;;;;;4969150;28;20035;-72
2022/06/09 11:46:23;;;;;;;1.17;1.08;;;;;;;;;;4968273;28;20037;-69
2022/06/09 11:48:50;;;;;;;1.05;0.95;;;;;;;;;;4970609;28;20037;-70
2022/06/09 11:51:17;;;;;;;1.33;1.23;;;;;;;;;;4972613;28;20046;-68
2022/06/09 11:53:48;;;;;;;1.10;1.00;;;;;;;;;;4971164;28;20045;-71
2022/06/09 11:56:34;;;;;;;1.38;1.05;;;;;;;;;;4967734;28;20023;-70
2022/06/09 11:59:01;;;;;;;1.70;1.30;;;;;;;;;;4970888;28;20466;-71
2022/06/09 12:01:32;;;;;;;1.42;1.33;;;;;;;;;;4968985;28;20054;-73
2022/06/09 12:04:07;;;;;;;2.03;1.13;;;;;;;;;;4967633;28;20098;-69
2022/06/09 12:06:32;;;;;;;1.48;1.17;;;;;;;;;;4969886;28;20109;-75
2022/06/09 12:09:08;;;;;;;1.30;1.20;;;;;;;;;;4971469;28;20113;-71
2022/06/09 12:11:48;;;;;;;1.77;0.90;;;;;;;;;;4969238;28;20026;-69
2022/06/09 12:14:18;;;;;;;1.10;1.00;;;;;;;;;;4968352;28;20031;-69
2022/06/09 12:17:05;;;;;;;2.00;1.30;;;;;;;;;;4966811;28;20027;-71
2022/06/09 12:19:35;;;;;;;2.38;1.13;;;;;;;;;;4971633;28;20130;-72
2022/06/09 12:22:36;;;;;;;0.90;0.90;;;;;;;;;;4973559;28;20030;-69
2022/06/09 12:25:07;;;;;;;2.53;1.15;;;;;;;;;;4901736;29;20115;-70
2022/06/09 12:27:36;;;;;;;1.55;1.25;;;;;;;;;;4965702;28;20042;-75
2022/06/09 12:30:02;;;;;;;1.20;1.08;;;;;;;;;;4969331;28;20058;-69
2022/06/09 12:32:40;;;;;;;0.95;0.95;;;;;;;;;;4975440;28;20466;-70
2022/06/09 12:35:17;;;;;;;1.65;1.25;;;;;;;;;;4974058;28;20061;-73
2022/06/09 12:37:49;;;;;;;0.85;0.80;;;;;;;;;;4969408;28;20442;-72
2022/06/09 12:40:17;;;;;;;1.17;1.13;;;;;;;;;;4974148;28;20022;-70
2022/06/09 12:42:50;;;;;;;3.30;1.00;;;;;;;;;;4971554;28;20449;-73
2022/06/09 12:45:18;;;;;;;0.70;0.70;;;;;;;;;;4974763;28;20451;-75
2022/06/09 12:47:56;;;;;;;2.13;0.90;;;;;;;;;;4970551;28;20038;-70
2022/06/09 12:50:33;;;;;;;2.00;1.13;;;;;;;;;;4973625;28;20803;-71
2022/06/09 12:52:58;;;;;;;0.80;0.80;;;;;;;;;;4970632;28;20019;-68
2022/06/09 12:55:32;;;;;;;0.85;0.80;;;;;;;;;;4975208;28;20044;-75
2022/06/09 12:58:03;;;;;;;4.88;0.70;;;;;;;;;;4974846;28;20448;-68
2022/06/09 13:00:33;;;;;;;1.20;1.00;;;;;;;;;;4973726;28;20034;-68
2022/06/09 13:02:59;;;;;;;1.10;0.98;;;;;;;;;;4971213;28;20957;-67
2022/06/09 13:05:29;;;;;;;1.33;0.80;;;;;;;;;;4971800;28;20053;-70
2022/06/09 13:08:00;;;;;;;1.30;1.00;;;;;;;;;;4970536;28;20035;-69
2022/06/09 13:10:36;;;;;;;1.20;0.90;;;;;;;;;;4970632;28;20442;-69
2022/06/09 13:13:18;;;;;;;0.85;0.65;;;;;;;;;;4974694;28;20034;-73
2022/06/09 13:15:55;;;;;;;1.17;0.80;;;;;;;;;;4974161;28;20053;-74
2022/06/09 13:18:28;;;;;;;1.33;0.70;;;;;;;;;;4971950;28;20058;-71
2022/06/09 13:20:58;;;;;;;0.75;0.68;;;;;;;;;;4976586;28;20081;-72
2022/06/09 13:23:25;;;;;;;1.75;0.82;;;;;;;;;;4971900;28;20089;-71
2022/06/09 13:25:51;;;;;;;0.70;0.70;;;;;;;;;;4971181;28;20023;-71
2022/06/09 13:28:22;;;;;;;1.20;0.93;;;;;;;;;;4969911;28;20406;-69
2022/06/09 13:30:49;;;;;;;0.95;0.80;;;;;;;;;;4973050;28;20085;-69
2022/06/09 13:33:35;;;;;;;1.70;0.65;;;;;;;;;;4971877;28;20026;-69
2022/06/09 13:36:09;;;;;;;0.80;0.80;;;;;;;;;;4970935;28;20467;-70
2022/06/09 13:38:36;;;;;;;2.80;0.70;;;;;;;;;;4971439;28;20034;-69
2022/06/09 13:41:16;;;;;;;1.23;0.80;;;;;;;;;;4970872;28;20023;-70
2022/06/09 13:43:47;;;;;;;0.95;0.70;;;;;;;;;;4969795;28;20038;-72
2022/06/09 13:46:15;;;;;;;0.90;0.90;;;;;;;;;;4972435;28;20038;-76
2022/06/09 13:48:40;;;;;;;1.50;0.82;;;;;;;;;;4973515;28;20030;-69
2022/06/09 13:51:06;;;;;;;0.90;0.90;;;;;;;;;;4971805;28;20033;-70
2022/06/09 13:54:04;;;;;;;1.48;1.02;;;;;;;;;;4968589;28;20037;-76
2022/06/09 13:56:29;;;;;;;1.85;0.90;;;;;;;;;;4930885;28;20057;-69
2022/06/09 13:58:55;;;;;;;1.23;0.88;;;;;;;;;;4968602;28;20034;-68
2022/06/09 14:01:20;;;;;;;1.15;0.95;;;;;;;;;;4970768;28;20034;-73
2022/06/09 14:03:49;;;;;;;1.25;0.80;;;;;;;;;;4970762;28;20028;-69
2022/06/09 14:06:16;;;;;;;0.95;0.90;;;;;;;;;;4971374;28;20038;-70
2022/06/09 14:08:45;;;;;;;1.40;1.08;;;;;;;;;;4968825;28;20230;-70
2022/06/09 14:11:14;;;;;;;2.72;0.93;;;;;;;;;;4971125;28;20041;-69
2022/06/09 14:13:39;;;;;;;1.10;0.77;;;;;;;;;;4961663;28;20045;-71
2022/06/09 14:16:06;;;;;;;1.13;1.00;;;;;;;;;;4953094;28;20466;-70
2022/06/09 14:18:33;;;;;;;0.98;0.98;;;;;;;;;;4964175;28;20043;-73
2022/06/09 14:20:59;;;;;;;2.25;1.00;;;;;;;;;;4969602;28;20040;-74
2022/06/09 14:23:27;;;;;;;1.30;1.10;;;;;;;;;;4957778;28;20038;-74
2022/06/09 14:25:57;;;;;;;1.17;1.00;;;;;;;;;;4972030;28;20046;-69
2022/06/09 14:28:23;;;;;;;2.55;1.60;;;;;;;;;;4956601;28;20030;-70
2022/06/09 14:30:49;;;;;;;1.23;1.13;;;;;;;;;;4950597;28;20113;-74
2022/06/09 14:33:17;;;;;;;3.47;1.10;;;;;;;;;;4956345;28;20158;-70
2022/06/09 14:35:43;;;;;;;1.40;1.10;;;;;;;;;;4960459;28;20038;-69
2022/06/09 14:38:09;;;;;;;1.27;1.17;;;;;;;;;;4957389;28;20347;-69
2022/06/09 14:40:37;;;;;;;3.00;1.33;;;;;;;;;;4968691;28;20467;-70
2022/06/09 14:43:04;;;;;;;1.83;1.10;;;;;;;;;;4971219;28;20041;-69
2022/06/09 14:45:30;;;;;;;2.97;1.50;;;;;;;;;;4968749;28;20085;-72
2022/06/09 14:47:55;;;;;;;1.27;1.10;;;;;;;;;;4970028;28;20064;-70
2022/06/09 14:50:23;;;;;;;2.28;1.27;;;;;;;;;;4973873;28;22658;-76
2022/06/09 14:52:48;;;;;;;5.68;1.20;;;;;;;;;;4972059;28;20039;-69
2022/06/09 14:55:14;;;;;;;1.77;1.38;;;;;;;;;;4970780;28;20092;-69
2022/06/09 14:57:40;;;;;;;1.20;1.10;;;;;;;;;;4969316;28;20050;-69
2022/06/09 15:00:07;;;;;;;1.50;1.08;;;;;;;;;;4955596;28;20019;-76
2022/06/09 15:02:32;;;;;;;1.15;1.10;;;;;;;;;;4970569;28;20724;-71
2022/06/09 15:04:58;;;;;;;2.38;1.10;;;;;;;;;;4971138;28;20038;-69
2022/06/09 15:07:23;;;;;;;2.85;0.98;;;;;;;;;;4969892;28;20027;-70
2022/06/09 15:09:49;;;;;;;1.35;1.05;;;;;;;;;;4971182;28;20442;-68
2022/06/09 15:12:17;;;;;;;1.20;1.00;;;;;;;;;;4964102;28;20022;-68
2022/06/09 15:14:42;;;;;;;1.42;1.10;;;;;;;;;;4958177;28;20069;-70
2022/06/09 15:17:08;;;;;;;1.50;1.00;;;;;;;;;;4964402;28;20053;-70
2022/06/09 15:19:33;;;;;;;3.28;1.35;;;;;;;;;;4962636;28;20018;-69
2022/06/09 15:21:59;;;;;;;1.48;1.10;;;;;;;;;;4961362;28;20027;-67